Time;durP1;ratioP1;P1;durP2;ratioP2;P2;SDS_P1;SDS_P2;PMS_P1;PMS_P2;Temp;Humidity;BMP_temperature;BMP_pressure;BME280_temperature;BME280_humidity;BME280_pressure;Samples;Min_cycle;Max_cycle;Signal;HPM_P1;HPM_P2
2022/03/22 00:00:06;;;;;;;19.40;6.25;;;;;;;3.33;100.00;96641.53;5047435;28;20092;-62
2022/03/22 00:02:34;;;;;;;13.35;6.72;;;;;;;3.33;100.00;96640.72;5051460;28;20036;-62
2022/03/22 00:05:00;;;;;;;12.48;6.18;;;;;;;3.26;100.00;96642.44;5052044;28;20020;-61
2022/03/22 00:07:27;;;;;;;15.70;6.90;;;;;;;3.02;100.00;96623.13;5055303;28;20071;-62
2022/03/22 00:09:55;;;;;;;16.52;7.05;;;;;;;2.83;100.00;96627.13;5056181;28;20029;-61
2022/03/22 00:12:26;;;;;;;14.75;6.95;;;;;;;2.66;100.00;96611.56;5055849;28;20055;-61
2022/03/22 00:14:56;;;;;;;14.90;7.18;;;;;;;2.54;100.00;96603.22;5056054;28;20051;-62
2022/03/22 00:17:21;;;;;;;12.73;5.93;;;;;;;2.49;100.00;96593.16;5054544;28;20354;-62
2022/03/22 00:19:50;;;;;;;17.80;7.10;;;;;;;2.89;100.00;96580.59;5055718;28;20086;-61
2022/03/22 00:22:19;;;;;;;15.55;7.05;;;;;;;3.20;100.00;96593.69;5055746;28;20441;-59
2022/03/22 00:24:44;;;;;;;18.15;7.50;;;;;;;3.19;100.00;96589.38;5054190;28;20043;-61
2022/03/22 00:27:09;;;;;;;15.55;7.53;;;;;;;2.98;100.00;96584.81;5055675;28;20021;-59
2022/03/22 00:29:35;;;;;;;14.85;6.47;;;;;;;2.80;100.00;96597.53;5055545;28;20020;-61
2022/03/22 00:32:00;;;;;;;15.32;6.97;;;;;;;2.53;100.00;96588.34;5055427;28;20078;-59
2022/03/22 00:34:28;;;;;;;11.90;6.88;;;;;;;2.38;100.00;96587.47;5054142;28;20017;-59
2022/03/22 00:37:00;;;;;;;13.77;7.07;;;;;;;2.22;100.00;96580.47;5055378;28;20029;-60
2022/03/22 00:39:26;;;;;;;15.25;7.40;;;;;;;2.07;100.00;96580.44;5070663;28;20391;-61
2022/03/22 00:41:54;;;;;;;12.60;6.63;;;;;;;1.94;100.00;96575.69;5055050;28;20051;-61
2022/03/22 00:44:22;;;;;;;14.80;6.43;;;;;;;1.82;100.00;96569.16;5046492;28;20175;-61
2022/03/22 00:46:51;;;;;;;15.88;7.28;;;;;;;1.69;100.00;96567.09;5053526;28;20025;-59
2022/03/22 00:49:25;;;;;;;14.25;7.22;;;;;;;1.59;100.00;96560.38;5055183;28;20042;-59
2022/03/22 00:51:54;;;;;;;15.32;7.35;;;;;;;1.43;100.00;96556.00;5034914;28;20021;-62
2022/03/22 00:54:20;;;;;;;15.65;6.93;;;;;;;1.39;100.00;96544.13;5035039;28;20078;-62
2022/03/22 00:56:45;;;;;;;12.27;6.90;;;;;;;1.48;100.00;96532.53;5034944;28;20474;-62
2022/03/22 01:01:58;;;;;;;13.68;7.45;;;;;;;1.28;100.00;96515.47;5034910;28;20040;-62
2022/03/22 01:04:32;;;;;;;15.23;6.88;;;;;;;1.12;100.00;96511.91;5033687;28;20021;-62
2022/03/22 01:06:58;;;;;;;15.27;7.60;;;;;;;1.02;100.00;96502.56;5034933;28;20017;-62
2022/03/22 01:09:28;;;;;;;16.55;8.25;;;;;;;0.90;100.00;96504.72;5034731;28;20017;-62
2022/03/22 01:11:57;;;;;;;15.30;7.65;;;;;;;0.88;100.00;96492.72;5033557;28;20455;-60
2022/03/22 01:14:25;;;;;;;11.93;7.07;;;;;;;0.89;100.00;96481.16;5034653;28;20543;-62
2022/03/22 01:17:03;;;;;;;17.80;7.72;;;;;;;0.93;100.00;96475.38;5048061;28;20029;-58
2022/03/22 01:19:38;;;;;;;16.90;8.40;;;;;;;0.95;100.00;96462.81;5034609;28;20383;-61
2022/03/22 01:22:05;;;;;;;18.13;8.27;;;;;;;0.93;100.00;96464.81;5034532;28;20492;-59
2022/03/22 01:24:31;;;;;;;19.23;8.77;;;;;;;0.86;100.00;96464.66;5034614;28;20032;-61
2022/03/22 01:26:59;;;;;;;17.10;8.07;;;;;;;0.77;100.00;96455.16;5034559;28;20025;-62
2022/03/22 01:29:31;;;;;;;19.42;8.65;;;;;;;0.69;100.00;96451.72;5033100;28;20028;-62
2022/03/22 01:32:04;;;;;;;19.33;8.07;;;;;;;0.57;100.00;96444.19;5034333;28;20036;-62
2022/03/22 01:34:30;;;;;;;16.67;7.80;;;;;;;0.54;100.00;96438.41;5034425;28;20047;-63
2022/03/22 01:36:55;;;;;;;18.60;8.10;;;;;;;0.50;100.00;96432.66;5034342;28;20025;-62
2022/03/22 01:39:20;;;;;;;14.43;7.65;;;;;;;0.43;100.00;96431.66;5034247;28;20021;-58
2022/03/22 01:41:46;;;;;;;14.10;7.25;;;;;;;0.40;100.00;96434.66;5033758;28;20047;-56
2022/03/22 01:44:11;;;;;;;15.98;8.55;;;;;;;0.43;100.00;96420.31;5052661;28;20029;-61
2022/03/22 01:46:37;;;;;;;14.25;8.52;;;;;;;0.50;100.00;96416.84;5054143;28;20021;-62
2022/03/22 01:49:03;;;;;;;15.38;8.60;;;;;;;0.56;100.00;96420.63;5054075;28;20383;-63
2022/03/22 01:51:32;;;;;;;14.40;7.95;;;;;;;0.54;100.00;96412.88;5035588;28;20025;-61
2022/03/22 01:54:01;;;;;;;18.58;8.82;;;;;;;0.48;100.00;96413.56;5034010;28;20025;-61
2022/03/22 01:56:33;;;;;;;14.65;8.30;;;;;;;0.40;100.00;96413.56;5033768;28;20040;-62
2022/03/22 01:59:07;;;;;;;15.15;8.77;;;;;;;0.32;100.00;96421.47;5040457;28;20395;-63
2022/03/22 02:07:11;;;;;;;15.32;8.60;;;;;;;0.11;100.00;96400.13;5053812;28;20036;-62
2022/03/22 02:09:36;;;;;;;13.95;8.07;;;;;;;0.15;100.00;96394.38;5053604;28;20020;-63
2022/03/22 02:12:02;;;;;;;16.75;8.43;;;;;;;0.23;100.00;96393.53;5053464;28;20029;-62
2022/03/22 02:14:30;;;;;;;18.83;8.63;;;;;;;0.22;100.00;96395.34;5053497;28;20394;-60
2022/03/22 02:16:57;;;;;;;15.95;8.25;;;;;;;0.18;100.00;96393.19;5053634;28;20052;-61
2022/03/22 02:19:29;;;;;;;21.52;9.60;;;;;;;0.13;100.00;96387.63;5053347;28;20033;-62
2022/03/22 02:22:02;;;;;;;15.73;8.90;;;;;;;0.02;100.00;96391.44;5053359;28;20495;-61
2022/03/22 02:24:27;;;;;;;;;;;;;;;-0.06;100.00;96383.53;5052536;28;20052;-61
2022/03/22 02:27:10;;;;;;;14.68;8.05;;;;;;;-0.08;100.00;96377.63;5053423;28;19943;-62
2022/03/22 02:29:36;;;;;;;16.77;8.18;;;;;;;-0.05;100.00;96380.72;5052705;28;20029;-61
2022/03/22 02:32:04;;;;;;;13.07;7.72;;;;;;;0.14;100.00;96379.56;5053193;28;20107;-62
2022/03/22 02:34:35;;;;;;;20.40;8.95;;;;;;;0.24;100.00;96376.72;5053135;28;20430;-59
2022/03/22 02:37:01;;;;;;;17.05;8.35;;;;;;;0.25;100.00;96379.19;5052987;28;20049;-62
2022/03/22 02:39:34;;;;;;;14.50;7.85;;;;;;;0.28;100.00;96386.75;5051816;28;20059;-61
2022/03/22 02:41:59;;;;;;;15.38;7.88;;;;;;;0.31;100.00;96382.94;5052703;28;20044;-61
2022/03/22 02:44:25;;;;;;;13.68;7.78;;;;;;;0.32;100.00;96387.22;5053118;28;20482;-61
2022/03/22 02:46:50;;;;;;;16.45;8.63;;;;;;;0.29;100.00;96390.22;5052824;28;20530;-60
2022/03/22 02:49:34;;;;;;;17.33;9.02;;;;;;;0.24;100.00;96384.63;5052930;28;20029;-59
2022/03/22 02:51:59;;;;;;;16.45;8.35;;;;;;;0.18;100.00;96398.47;5032957;28;20027;-59
2022/03/22 02:54:25;;;;;;;16.83;8.52;;;;;;;0.14;100.00;96398.00;5033018;28;20458;-61
2022/03/22 02:56:50;;;;;;;15.32;8.95;;;;;;;0.07;100.00;96393.56;5031601;28;20084;-61
2022/03/22 02:59:16;;;;;;;16.00;8.70;;;;;;;-0.02;100.00;96400.63;5032870;28;20017;-60
2022/03/22 03:01:44;;;;;;;18.50;8.18;;;;;;;-0.20;100.00;96390.31;5032669;28;20412;-55
2022/03/22 03:04:09;;;;;;;14.95;8.75;;;;;;;-0.32;100.00;96386.38;5032805;28;20025;-59
2022/03/22 03:06:35;;;;;;;15.93;8.15;;;;;;;-0.39;100.00;96388.81;5031490;28;20032;-60
2022/03/22 03:09:01;;;;;;;16.60;8.95;;;;;;;-0.45;100.00;96378.13;5031461;28;20056;-58
2022/03/22 03:11:26;;;;;;;14.52;8.77;;;;;;;-0.52;100.00;96370.06;5032551;28;20582;-57
2022/03/22 03:16:38;;;;;;;14.88;8.70;;;;;;;-0.67;100.00;96363.81;5032869;28;20036;-61
2022/03/22 03:19:03;;;;;;;15.75;8.93;;;;;;;-0.71;100.00;96352.78;5032638;28;20021;-61
2022/03/22 03:21:29;;;;;;;14.35;8.50;;;;;;;-0.73;100.00;96336.34;5047694;28;20112;-60
2022/03/22 03:23:54;;;;;;;17.05;8.52;;;;;;;-0.70;100.00;96330.75;5031244;28;20381;-60
2022/03/22 03:26:22;;;;;;;16.80;8.65;;;;;;;-0.72;100.00;96327.47;5031188;28;20493;-59
2022/03/22 03:28:48;;;;;;;14.40;8.75;;;;;;;-0.76;100.00;96330.56;5032426;28;20125;-58
2022/03/22 03:31:13;;;;;;;15.77;9.13;;;;;;;-0.82;100.00;96326.00;5030947;28;20487;-60
2022/03/22 03:33:39;;;;;;;16.50;9.10;;;;;;;-0.91;100.00;96319.91;5032475;28;20025;-61
2022/03/22 03:36:04;;;;;;;14.52;8.40;;;;;;;-0.95;100.00;96319.41;5032376;28;20028;-61
2022/03/22 03:38:41;;;;;;;17.52;9.25;;;;;;;-0.97;100.00;96325.81;5039178;28;20182;-60
2022/03/22 03:43:54;;;;;;;13.35;8.35;;;;;;;-0.89;100.00;96325.81;5035950;28;20040;-58
2022/03/22 03:49:06;;;;;;;16.80;8.27;;;;;;;-0.79;100.00;96321.22;5055417;28;20056;-58
2022/03/22 03:51:35;;;;;;;18.52;9.02;;;;;;;-0.84;100.00;96322.72;5055445;28;20025;-58
2022/03/22 03:54:02;;;;;;;15.45;7.93;;;;;;;-0.92;100.00;96324.34;5055353;28;20024;-61
2022/03/22 03:56:27;;;;;;;17.90;8.20;;;;;;;-0.88;100.00;96320.38;5055390;28;20071;-59
2022/03/22 03:58:54;;;;;;;14.73;8.23;;;;;;;-0.80;100.00;96318.75;5054877;28;20028;-59
2022/03/22 04:01:21;;;;;;;15.82;8.25;;;;;;;-0.71;100.00;96323.03;5054970;28;20017;-58
2022/03/22 04:03:52;;;;;;;12.88;7.43;;;;;;;-0.59;100.00;96308.56;5053756;28;20029;-59
2022/03/22 04:06:24;;;;;;;16.85;8.30;;;;;;;-0.50;100.00;96306.75;5055155;28;20056;-56
2022/03/22 04:08:49;;;;;;;17.30;8.80;;;;;;;-0.44;100.00;96312.16;5054591;28;20041;-59
2022/03/22 04:11:14;;;;;;;18.05;8.52;;;;;;;-0.39;100.00;96320.38;5054976;28;20017;-60
2022/03/22 04:13:40;;;;;;;17.27;8.18;;;;;;;-0.43;100.00;96320.91;5053656;28;20032;-59
2022/03/22 04:16:05;;;;;;;17.15;9.23;;;;;;;-0.48;100.00;96325.81;5054997;28;20025;-62
2022/03/22 04:18:31;;;;;;;15.63;9.02;;;;;;;-0.57;100.00;96330.25;5054614;28;20151;-61
2022/03/22 04:21:02;;;;;;;13.68;8.05;;;;;;;-0.66;100.00;96329.44;5054898;28;20024;-60
2022/03/22 04:23:30;;;;;;;20.35;8.35;;;;;;;-0.64;100.00;96326.66;5053617;28;20021;-60
2022/03/22 04:26:04;;;;;;;18.88;9.15;;;;;;;-0.58;100.00;96323.34;5054790;28;20027;-61
2022/03/22 04:33:58;;;;;;;15.55;8.77;;;;;;;-0.66;100.00;96331.25;5054798;28;20075;-60
2022/03/22 04:36:29;;;;;;;17.48;8.63;;;;;;;-0.85;100.00;96334.22;5054511;28;20475;-62
2022/03/22 04:38:59;;;;;;;17.65;9.10;;;;;;;-1.00;100.00;96331.38;5028179;28;20400;-61
2022/03/22 04:41:33;;;;;;;20.00;9.30;;;;;;;-1.12;100.00;96330.88;5051766;28;20033;-59
2022/03/22 04:43:58;;;;;;;18.00;9.73;;;;;;;-1.18;100.00;96332.38;5053320;28;20586;-61
2022/03/22 04:46:27;;;;;;;16.23;9.13;;;;;;;-1.23;100.00;96329.38;5045122;28;20037;-60
2022/03/22 04:48:53;;;;;;;18.77;9.45;;;;;;;-1.26;100.00;96318.38;5032952;28;20032;-61
2022/03/22 04:57:10;;;;;;;17.58;8.77;;;;;;;-1.34;100.00;96305.19;5032611;28;20056;-61
2022/03/22 04:59:35;;;;;;;15.63;9.25;;;;;;;-1.31;100.00;96312.75;5032930;28;20026;-59
2022/03/22 05:02:07;;;;;;;18.52;9.35;;;;;;;-1.31;100.00;96300.44;5034411;28;20377;-60
2022/03/22 05:04:32;;;;;;;19.25;9.63;;;;;;;-1.26;100.00;96297.34;5034393;28;20030;-61
2022/03/22 05:07:00;;;;;;;21.95;9.68;;;;;;;-1.21;100.00;96298.50;5034369;28;20499;-61
2022/03/22 05:09:28;;;;;;;19.73;9.15;;;;;;;-1.18;100.00;96298.19;5033713;28;20022;-60
2022/03/22 05:11:57;;;;;;;19.85;8.73;;;;;;;-1.17;100.00;96291.13;5034004;28;20028;-62
2022/03/22 05:14:23;;;;;;;21.33;9.90;;;;;;;-1.20;100.00;96300.13;5053092;28;20441;-59
2022/03/22 05:16:48;;;;;;;15.55;8.38;;;;;;;-1.28;100.00;96304.56;5033963;28;20039;-61
2022/03/22 05:19:14;;;;;;;17.30;9.48;;;;;;;-1.42;100.00;96306.00;5032177;28;20120;-61
2022/03/22 05:21:40;;;;;;;19.27;9.45;;;;;;;-1.52;100.00;96310.56;5033716;28;20026;-61
2022/03/22 05:24:09;;;;;;;16.27;8.95;;;;;;;-1.56;100.00;96312.69;5033820;28;20055;-61
2022/03/22 05:26:35;;;;;;;16.25;8.20;;;;;;;-1.60;100.00;96303.50;5033693;28;20025;-61
2022/03/22 05:29:05;;;;;;;17.17;9.18;;;;;;;-1.71;100.00;96310.84;5048738;28;20637;-61
2022/03/22 05:31:31;;;;;;;18.42;9.27;;;;;;;-1.76;100.00;96308.69;5043320;28;20480;-61
2022/03/22 05:34:00;;;;;;;17.30;8.57;;;;;;;-1.80;100.00;96310.81;5035953;28;20036;-58
2022/03/22 05:36:26;;;;;;;16.80;8.90;;;;;;;-1.84;100.00;96306.88;5033377;28;20387;-57
2022/03/22 05:38:58;;;;;;;21.02;9.45;;;;;;;-1.88;100.00;96304.69;5033722;28;20025;-57
2022/03/22 05:41:24;;;;;;;14.48;8.23;;;;;;;-1.93;100.00;96297.31;5051508;28;20028;-60
2022/03/22 05:43:52;;;;;;;19.15;9.25;;;;;;;-1.96;100.00;96294.97;5059485;23;20049;-55
2022/03/22 05:46:18;;;;;;;16.83;8.18;;;;;;;-1.95;100.00;96294.03;5033048;28;20021;-60
2022/03/22 05:48:48;;;;;;;12.75;7.68;;;;;;;-1.91;100.00;96282.22;5034138;28;20424;-56
2022/03/22 05:51:14;;;;;;;16.67;8.38;;;;;;;-1.86;100.00;96271.22;5034135;28;20021;-58
2022/03/22 05:53:39;;;;;;;17.77;8.45;;;;;;;-1.80;100.00;96274.03;5033902;28;20052;-58
2022/03/22 05:56:07;;;;;;;13.68;7.60;;;;;;;-1.72;100.00;96267.19;5033993;28;20510;-57
2022/03/22 05:58:33;;;;;;;17.50;7.55;;;;;;;-1.70;100.00;96271.28;5034124;28;20032;-55
2022/03/22 06:00:58;;;;;;;12.20;7.35;;;;;;;-1.63;100.00;96258.31;5033776;28;20484;-55
2022/03/22 06:03:23;;;;;;;14.43;7.43;;;;;;;-1.55;100.00;96263.59;5032944;28;20068;-56
2022/03/22 06:05:52;;;;;;;15.48;8.00;;;;;;;-1.47;100.00;96263.63;5033861;28;20525;-59
2022/03/22 06:08:19;;;;;;;15.70;8.40;;;;;;;-1.35;100.00;96257.06;5032639;28;20025;-62
2022/03/22 06:10:45;;;;;;;17.23;8.88;;;;;;;-1.19;100.00;96262.38;5033748;28;20539;-59
2022/03/22 06:13:10;;;;;;;19.83;9.05;;;;;;;-1.07;100.00;96260.25;5015869;28;20026;-62
2022/03/22 06:15:39;;;;;;;16.50;8.15;;;;;;;-0.92;100.00;96260.41;5033594;28;20029;-60
2022/03/22 06:18:09;;;;;;;15.32;8.10;;;;;;;-0.85;100.00;96253.50;5033186;28;20035;-57
2022/03/22 06:20:41;;;;;;;16.05;8.77;;;;;;;-0.81;100.00;96253.97;5033508;28;20075;-55
2022/03/22 06:23:11;;;;;;;16.25;7.93;;;;;;;-0.79;100.00;96255.44;5015658;28;20133;-57
2022/03/22 06:25:46;;;;;;;17.23;8.43;;;;;;;-0.79;100.00;96265.16;5033476;28;20483;-59
2022/03/22 06:28:14;;;;;;;20.00;9.15;;;;;;;-0.79;100.00;96260.72;5033278;28;20463;-61
2022/03/22 06:30:40;;;;;;;13.63;8.15;;;;;;;-0.80;100.00;96256.44;5033185;28;20523;-57
2022/03/22 06:33:11;;;;;;;16.63;8.55;;;;;;;-0.75;100.00;96255.97;5033153;28;20116;-59
2022/03/22 06:35:44;;;;;;;15.50;8.55;;;;;;;-0.64;100.00;96248.53;5015352;28;20072;-55
2022/03/22 06:38:09;;;;;;;16.63;8.75;;;;;;;-0.51;100.00;96240.13;5015320;28;20025;-55
2022/03/22 06:40:37;;;;;;;16.33;8.88;;;;;;;-0.32;100.00;96231.03;5032808;28;20033;-56
2022/03/22 06:43:05;;;;;;;21.63;8.68;;;;;;;-0.12;100.00;96234.09;5039211;28;20072;-56
2022/03/22 06:45:33;;;;;;;15.13;7.78;;;;;;;0.09;100.00;96226.44;5052901;28;20036;-58
2022/03/22 06:48:00;;;;;;;14.13;8.20;;;;;;;0.32;100.00;96230.94;5034871;28;20479;-56
2022/03/22 06:50:26;;;;;;;15.48;8.20;;;;;;;0.54;100.00;96238.91;5035167;28;20033;-57
2022/03/22 06:52:55;;;;;;;13.85;8.13;;;;;;;0.78;100.00;96250.28;5029309;28;20075;-53
2022/03/22 06:55:22;;;;;;;17.35;8.43;;;;;;;1.07;100.00;96252.19;5034898;28;20040;-56
2022/03/22 06:57:51;;;;;;;17.23;8.90;;;;;;;1.55;100.00;96250.94;5034747;28;20394;-57
2022/03/22 07:00:18;;;;;;;17.08;8.13;;;;;;;2.13;100.00;96240.56;5034538;28;20025;-61
2022/03/22 07:02:49;;;;;;;19.13;8.93;;;;;;;2.69;100.00;96240.81;5034612;28;20479;-58
2022/03/22 07:05:17;;;;;;;15.05;8.45;;;;;;;3.26;100.00;96250.56;5052602;28;20025;-58
2022/03/22 07:07:43;;;;;;;17.35;8.27;;;;;;;3.84;100.00;96277.69;5052402;28;20032;-58
2022/03/22 07:10:12;;;;;;;17.20;8.25;;;;;;;4.44;100.00;96306.19;5052510;28;20082;-57
2022/03/22 07:12:57;;;;;;;14.20;8.20;;;;;;;5.18;100.00;96359.41;5052411;28;20048;-57
2022/03/22 07:15:37;;;;;;;18.13;8.18;;;;;;;5.86;100.00;96420.50;5034398;28;20021;-60
2022/03/22 07:18:08;;;;;;;14.88;8.10;;;;;;;6.43;100.00;96475.00;5041811;28;20048;-60
2022/03/22 07:20:35;;;;;;;14.43;8.20;;;;;;;6.96;100.00;96546.88;5019547;28;20037;-58
2022/03/22 07:23:03;;;;;;;16.17;7.63;;;;;;;7.32;100.00;96609.56;5032443;28;20083;-60
2022/03/22 07:25:29;;;;;;;12.07;6.32;;;;;;;7.61;100.00;96666.94;5032111;28;20055;-60
2022/03/22 07:27:55;;;;;;;11.80;6.25;;;;;;;7.65;100.00;96722.31;5032357;28;20396;-60
2022/03/22 07:30:20;;;;;;;11.65;6.22;;;;;;;7.67;100.00;96754.94;5032245;28;20022;-60
2022/03/22 07:32:46;;;;;;;14.85;6.90;;;;;;;7.71;100.00;96758.03;4991225;28;20029;-58
2022/03/22 07:35:17;;;;;;;10.98;6.10;;;;;;;7.75;100.00;96769.91;4988159;28;20038;-58
2022/03/22 07:37:43;;;;;;;11.13;6.95;;;;;;;7.97;100.00;96779.34;5015665;28;20104;-58
2022/03/22 07:40:10;;;;;;;13.43;7.05;;;;;;;8.13;100.00;96783.41;5014481;28;20507;-58
2022/03/22 07:42:41;;;;;;;12.63;7.50;;;;;;;8.38;100.00;96795.13;5014421;28;20053;-61
2022/03/22 07:45:09;;;;;;;13.88;7.35;;;;;;;8.55;98.22;96803.50;5051741;28;20025;-61
2022/03/22 07:47:37;;;;;;;14.73;7.40;;;;;;;8.78;97.41;96807.53;5032172;28;20041;-58
2022/03/22 07:53:06;;;;;;;12.27;6.82;;;;;;;9.04;93.90;96833.34;5038500;28;20415;-58
2022/03/22 07:55:34;;;;;;;10.80;7.18;;;;;;;9.21;93.34;96854.00;5040929;28;20029;-60
2022/03/22 07:58:02;;;;;;;14.45;8.10;;;;;;;9.43;93.37;96859.06;5051946;28;20028;-59
2022/03/22 08:00:30;;;;;;;13.48;8.00;;;;;;;9.68;95.58;96853.78;5051968;28;20112;-59
2022/03/22 08:03:03;;;;;;;11.65;7.65;;;;;;;9.87;94.04;96861.66;5051611;28;20498;-59
2022/03/22 08:05:30;;;;;;;15.85;7.72;;;;;;;9.98;93.29;96867.34;5051962;28;20502;-59
2022/03/22 08:08:04;;;;;;;15.98;7.65;;;;;;;9.83;92.15;96876.53;5051910;28;20051;-62
2022/03/22 08:10:31;;;;;;;17.77;7.97;;;;;;;9.96;90.69;96878.28;5051868;28;20025;-59
2022/03/22 08:13:00;;;;;;;11.43;6.95;;;;;;;10.09;88.93;96894.28;5033869;28;20537;-56
2022/03/22 08:15:30;;;;;;;13.20;6.70;;;;;;;10.25;87.77;96895.59;5034319;28;20029;-60
2022/03/22 08:17:56;;;;;;;15.00;6.95;;;;;;;10.34;82.96;96899.66;5051741;28;20052;-58
2022/03/22 08:20:28;;;;;;;17.02;7.90;;;;;;;10.52;82.42;96898.88;5051705;28;20464;-57
2022/03/22 08:23:04;;;;;;;13.15;7.35;;;;;;;10.64;82.04;96897.13;5051692;28;20368;-58
2022/03/22 08:25:38;;;;;;;13.73;7.50;;;;;;;10.81;82.19;96901.91;5033827;28;20021;-58
2022/03/22 08:28:09;;;;;;;13.55;7.15;;;;;;;11.16;81.36;96905.66;5036349;28;20107;-60
2022/03/22 08:30:39;;;;;;;8.73;6.72;;;;;;;11.30;79.10;96907.16;5055441;28;20411;-61
2022/03/22 08:33:07;;;;;;;14.35;8.13;;;;;;;11.40;77.89;96905.81;5037312;28;20024;-61
2022/03/22 08:35:34;;;;;;;13.63;7.45;;;;;;;11.37;76.05;96903.56;5055358;28;20059;-61
2022/03/22 08:38:02;;;;;;;14.02;7.47;;;;;;;11.51;73.94;96916.59;5055381;28;20037;-59
2022/03/22 08:40:28;;;;;;;14.15;8.07;;;;;;;11.61;74.29;96908.84;5054838;28;20029;-61
2022/03/22 08:42:56;;;;;;;11.93;7.45;;;;;;;11.86;73.63;96911.41;5034896;28;20055;-59
2022/03/22 08:45:32;;;;;;;13.45;7.55;;;;;;;12.05;72.51;96904.13;5047837;28;20025;-60
2022/03/22 08:47:59;;;;;;;13.98;7.55;;;;;;;12.23;72.44;96905.06;5023943;28;20028;-63
2022/03/22 08:50:25;;;;;;;20.33;8.82;;;;;;;12.44;72.55;96897.28;5029216;28;20029;-59
2022/03/22 08:52:51;;;;;;;15.93;7.93;;;;;;;12.62;69.82;96893.69;5049417;28;20096;-58
2022/03/22 08:55:18;;;;;;;13.57;8.32;;;;;;;13.00;68.62;96895.06;5043226;28;20053;-60
2022/03/22 08:57:46;;;;;;;11.82;8.00;;;;;;;13.23;66.48;96896.94;5038599;28;20038;-58
2022/03/22 09:00:13;;;;;;;15.65;8.57;;;;;;;13.15;65.29;96890.03;5047403;28;20366;-61
2022/03/22 09:02:43;;;;;;;12.02;7.68;;;;;;;13.26;64.63;96894.59;5044892;28;20025;-59
2022/03/22 09:08:01;;;;;;;14.57;7.65;;;;;;;13.43;63.92;96901.91;5044638;28;20079;-61
2022/03/22 09:10:29;;;;;;;12.40;8.27;;;;;;;13.56;63.32;96893.56;5040036;28;20019;-58
2022/03/22 09:15:46;;;;;;;14.65;8.40;;;;;;;13.55;64.09;96895.44;5043168;28;20111;-62
2022/03/22 09:18:14;;;;;;;13.43;8.63;;;;;;;13.80;63.71;96887.06;5039494;28;20100;-59
2022/03/22 09:20:46;;;;;;;12.50;7.93;;;;;;;13.95;64.95;96883.00;5029117;28;20024;-61
2022/03/22 09:23:12;;;;;;;13.70;8.40;;;;;;;14.27;64.21;96892.19;5048534;28;20017;-59
2022/03/22 09:25:39;;;;;;;14.13;8.63;;;;;;;14.55;62.15;96895.91;5043027;28;20103;-61
2022/03/22 09:28:08;;;;;;;13.82;8.43;;;;;;;14.63;61.43;96895.47;5032573;28;20489;-61
2022/03/22 09:30:35;;;;;;;15.48;8.90;;;;;;;14.74;60.27;96886.47;5023448;28;20139;-59
2022/03/22 09:33:07;;;;;;;14.45;8.75;;;;;;;14.96;59.99;96881.94;5051867;28;20017;-61
2022/03/22 09:35:34;;;;;;;15.70;8.68;;;;;;;14.95;60.49;96883.03;5050453;28;20031;-61
2022/03/22 09:37:59;;;;;;;16.40;9.07;;;;;;;15.10;58.87;96878.91;5050689;28;20037;-62
2022/03/22 09:40:28;;;;;;;16.55;9.45;;;;;;;15.48;58.59;96878.03;5040889;28;20064;-59
2022/03/22 09:42:55;;;;;;;17.30;9.20;;;;;;;15.45;56.45;96870.44;5042106;28;20526;-64
2022/03/22 09:45:33;;;;;;;16.05;9.52;;;;;;;15.56;58.68;96872.19;5041064;28;20075;-61
2022/03/22 09:47:59;;;;;;;21.15;9.45;;;;;;;15.61;57.40;96867.69;5029229;28;20040;-62
2022/03/22 09:51:44;;;;;;;16.33;9.43;;;;;;;15.58;58.44;96865.47;5046150;28;20021;-61
2022/03/22 09:53:12;;;;;;;15.05;9.40;;;;;;;15.56;58.55;96859.50;5031019;28;20511;-62
2022/03/22 09:55:37;;;;;;;15.90;9.85;;;;;;;15.56;59.26;96867.63;5049365;28;20035;-61
2022/03/22 09:58:03;;;;;;;26.25;10.68;;;;;;;15.52;58.77;96855.69;5026624;28;20034;-62
2022/03/22 10:00:36;;;;;;;16.73;9.60;;;;;;;15.61;58.48;96858.78;5039761;28;20025;-61
2022/03/22 10:03:02;;;;;;;15.27;9.85;;;;;;;15.80;59.86;96853.84;5045605;28;20021;-61
2022/03/22 10:05:28;;;;;;;15.52;9.73;;;;;;;15.69;60.19;96849.41;5032645;28;20502;-61
2022/03/22 10:07:59;;;;;;;17.25;10.52;;;;;;;15.62;59.70;96853.13;5019968;28;20601;-62
2022/03/22 10:10:25;;;;;;;18.95;10.35;;;;;;;15.80;61.00;96851.16;5025340;28;20026;-60
2022/03/22 10:13:02;;;;;;;16.95;11.18;;;;;;;15.97;61.79;96845.66;5039209;28;20039;-59
2022/03/22 10:15:35;;;;;;;18.67;10.48;;;;;;;16.17;59.60;96833.13;5041184;28;20078;-62
2022/03/22 10:18:12;;;;;;;15.02;10.75;;;;;;;16.26;58.11;96832.66;5006250;28;20052;-62
2022/03/22 10:20:40;;;;;;;21.02;10.63;;;;;;;16.41;57.07;96832.78;5046656;28;20558;-62
2022/03/22 10:23:09;;;;;;;16.63;10.93;;;;;;;16.72;56.81;96834.66;5047420;28;20032;-62
2022/03/22 10:25:39;;;;;;;16.95;11.45;;;;;;;17.01;55.43;96820.72;5040266;28;20039;-62
2022/03/22 10:28:06;;;;;;;19.35;10.90;;;;;;;17.33;54.58;96834.16;5041408;28;20025;-62
2022/03/22 10:30:34;;;;;;;19.20;11.38;;;;;;;17.43;52.48;96826.06;5029822;28;20021;-62
2022/03/22 10:33:02;;;;;;;17.55;11.40;;;;;;;17.78;52.51;96830.78;5030697;28;20491;-62
2022/03/22 10:35:31;;;;;;;19.05;10.95;;;;;;;17.98;50.50;96830.03;5043801;28;20411;-62
2022/03/22 10:38:06;;;;;;;17.98;10.27;;;;;;;17.96;49.56;96824.06;5045605;28;20028;-61
2022/03/22 10:40:33;;;;;;;16.63;11.10;;;;;;;18.07;48.89;96825.69;5035580;28;20101;-63
2022/03/22 10:43:04;;;;;;;18.55;9.95;;;;;;;18.08;47.12;96827.31;5045701;28;20045;-62
2022/03/22 10:45:39;;;;;;;15.85;10.40;;;;;;;18.09;45.03;96822.72;5020002;28;20021;-62
2022/03/22 10:48:06;;;;;;;16.95;10.38;;;;;;;17.89;45.27;96826.19;5037684;28;20033;-62
2022/03/22 10:50:37;;;;;;;15.98;11.52;;;;;;;18.03;45.77;96821.09;5032794;28;20021;-63
2022/03/22 10:53:03;;;;;;;18.88;10.55;;;;;;;18.25;45.32;96818.94;5041487;28;20024;-63
2022/03/22 10:55:35;;;;;;;19.50;11.02;;;;;;;18.60;45.15;96820.81;5047291;28;20494;-62
2022/03/22 10:58:04;;;;;;;23.15;11.30;;;;;;;18.59;44.24;96813.75;5047808;28;20040;-62
2022/03/22 11:00:30;;;;;;;16.75;11.40;;;;;;;18.82;44.76;96818.63;5027717;28;20028;-62
2022/03/22 11:02:56;;;;;;;21.05;10.93;;;;;;;19.02;43.48;96816.97;5023900;28;20044;-61
2022/03/22 11:05:27;;;;;;;16.23;10.25;;;;;;;19.22;41.56;96813.38;5045954;28;20036;-60
2022/03/22 11:07:53;;;;;;;17.80;10.70;;;;;;;19.10;42.60;96819.09;5046199;28;20029;-61
2022/03/22 11:10:29;;;;;;;14.32;10.07;;;;;;;19.07;42.48;96814.22;5032838;28;20028;-62
2022/03/22 11:13:01;;;;;;;17.15;10.88;;;;;;;18.95;40.75;96813.72;5044638;28;20523;-61
2022/03/22 11:15:32;;;;;;;17.70;11.83;;;;;;;19.14;39.58;96813.94;5054891;28;20022;-61
2022/03/22 11:18:05;;;;;;;18.67;11.45;;;;;;;18.98;40.04;96811.25;5029539;28;20271;-61
2022/03/22 11:20:31;;;;;;;15.77;10.63;;;;;;;18.90;40.09;96806.41;5047685;28;20111;-62
2022/03/22 11:22:57;;;;;;;13.52;9.45;;;;;;;18.86;40.64;96808.03;5039432;28;20551;-61
2022/03/22 11:25:31;;;;;;;19.15;11.32;;;;;;;19.09;40.46;96804.69;5038108;28;20029;-62
2022/03/22 11:28:04;;;;;;;14.13;9.88;;;;;;;19.41;39.10;96809.72;5031564;28;20132;-62
2022/03/22 11:30:30;;;;;;;14.13;10.68;;;;;;;19.50;37.47;96807.25;5031181;28;20507;-61
2022/03/22 11:35:47;;;;;;;13.23;9.45;;;;;;;19.04;35.00;96798.47;5031807;28;20530;-62
2022/03/22 11:38:36;;;;;;;16.00;10.18;;;;;;;19.25;34.90;96791.88;5013869;28;20033;-61
2022/03/22 11:43:46;;;;;;;16.20;9.15;;;;;;;19.66;33.39;96795.25;5043423;23;20144;-64
2022/03/22 11:46:12;;;;;;;13.05;9.52;;;;;;;19.77;33.11;96793.28;5050146;28;20033;-63
2022/03/22 11:48:50;;;;;;;13.52;8.13;;;;;;;20.03;31.46;96788.47;5038406;28;20079;-64
2022/03/22 11:51:22;;;;;;;13.00;7.50;;;;;;;20.32;27.27;96780.34;5011096;28;20041;-64
2022/03/22 11:53:50;;;;;;;12.25;8.85;;;;;;;20.42;29.35;96779.44;5022086;28;20022;-64
2022/03/22 11:56:26;;;;;;;13.98;8.65;;;;;;;20.50;31.76;96782.38;5031786;28;20033;-63
2022/03/22 11:58:56;;;;;;;13.13;9.57;;;;;;;20.63;29.90;96775.47;5032177;28;20033;-64
2022/03/22 12:01:22;;;;;;;18.65;10.18;;;;;;;20.33;30.22;96776.53;5044962;28;20056;-64
2022/03/22 12:03:53;;;;;;;13.80;9.38;;;;;;;20.28;33.48;96776.56;5055829;28;20028;-64
2022/03/22 12:06:21;;;;;;;15.68;9.60;;;;;;;20.24;32.76;96776.31;5055896;28;20116;-64
2022/03/22 12:08:46;;;;;;;20.10;10.68;;;;;;;20.31;33.10;96764.31;5055671;28;20031;-64